Terminal Aerodrome Forecast
Issued by NWS Cleveland, OH

Home | Current Version | Previous Version | Graphics & Text | Print | Product List | Glossary Off
Versions: 1 2 3 4 5 6 7 8 9 10 11 12 13 14 15 16 17 18 19 20 21 22 23 24

000
FTUS41 KCLE 020500
TAFCAK
TAF
KCAK 020520Z 0206/0306 15003KT 4SM BR FEW250
      TEMPO 0209/0213 1SM BR SCT002
     FM021400 18008KT P6SM SCT100 BKN200
     FM022300 15010KT P6SM BKN150
     FM030100 15010KT P6SM BKN250=

USA.gov is the U.S. government's official web portal to all federal, state and local government web resources and services.